Time;durP1;ratioP1;P1;durP2;ratioP2;P2;SDS_P1;SDS_P2;PMS_P1;PMS_P2;Temp;Humidity;BMP_temperature;BMP_pressure;BME280_temperature;BME280_humidity;BME280_pressure;Samples;Min_cycle;Max_cycle;Signal;HPM_P1;HPM_P2
2021/05/14 00:02:05;;;;;;;1.85;0.40;;;11.90;99.90;;;;;;5061616;28;20033;-85
2021/05/14 00:04:31;;;;;;;0.85;0.45;;;11.90;99.90;;;;;;5062313;28;20119;-84
2021/05/14 00:06:59;;;;;;;1.17;0.68;;;11.80;99.90;;;;;;5061902;28;20068;-86
2021/05/14 00:09:24;;;;;;;0.73;0.50;;;11.80;99.90;;;;;;5061274;28;20046;-86
2021/05/14 00:11:50;;;;;;;1.75;0.40;;;11.80;99.90;;;;;;5079167;28;20024;-86
2021/05/14 00:14:19;;;;;;;3.08;0.50;;;11.80;99.90;;;;;;5078859;28;20025;-84
2021/05/14 00:16:48;;;;;;;0.52;0.30;;;11.80;99.90;;;;;;5062808;28;20045;-83
2021/05/14 00:19:13;;;;;;;1.00;0.40;;;11.80;99.90;;;;;;5061077;28;20123;-85
2021/05/14 00:21:39;;;;;;;0.80;0.38;;;11.80;99.90;;;;;;5080003;28;20057;-83
2021/05/14 00:24:05;;;;;;;0.82;0.40;;;11.80;99.90;;;;;;5061637;28;20389;-84
2021/05/14 00:26:31;;;;;;;1.35;0.50;;;11.80;99.90;;;;;;5044757;28;20033;-86
2021/05/14 00:28:56;;;;;;;1.40;0.30;;;11.80;99.90;;;;;;5079618;28;20044;-84
2021/05/14 00:31:23;;;;;;;0.90;0.50;;;11.80;99.90;;;;;;5060703;28;20016;-85
2021/05/14 00:33:50;;;;;;;0.73;0.50;;;11.70;99.90;;;;;;5061086;28;20120;-84
2021/05/14 00:36:15;;;;;;;5.03;0.45;;;11.70;99.90;;;;;;5060018;28;20139;-85
2021/05/14 00:38:42;;;;;;;1.15;0.40;;;11.70;99.90;;;;;;5060633;28;20021;-84
2021/05/14 00:41:08;;;;;;;0.95;0.60;;;11.60;99.90;;;;;;5060243;28;20020;-85
2021/05/14 00:43:38;;;;;;;0.60;0.25;;;11.60;99.90;;;;;;5078410;28;20028;-84
2021/05/14 00:46:04;;;;;;;2.15;0.50;;;11.60;99.90;;;;;;5061060;28;20080;-86
2021/05/14 00:48:30;;;;;;;1.15;0.40;;;11.60;99.90;;;;;;5060827;28;20087;-86
2021/05/14 00:50:57;;;;;;;1.83;0.50;;;11.60;99.90;;;;;;5060660;28;20020;-86
2021/05/14 00:53:23;;;;;;;0.65;0.40;;;11.60;99.90;;;;;;5060580;28;20021;-85
2021/05/14 00:55:49;;;;;;;2.05;0.47;;;11.60;99.90;;;;;;5060632;28;20122;-83
2021/05/14 00:58:15;;;;;;;1.25;0.40;;;11.60;99.90;;;;;;5078152;28;20387;-83
2021/05/14 01:00:41;;;;;;;1.65;0.50;;;11.60;99.90;;;;;;5060438;28;20157;-85
2021/05/14 01:03:14;;;;;;;1.67;0.40;;;11.60;99.90;;;;;;5060177;28;20029;-86
2021/05/14 01:05:40;;;;;;;1.10;0.40;;;11.60;99.90;;;;;;5078310;28;20107;-83
2021/05/14 01:08:11;;;;;;;0.80;0.50;;;11.50;99.90;;;;;;5060486;28;20024;-84
2021/05/14 01:10:38;;;;;;;2.42;0.60;;;11.50;99.90;;;;;;5060691;28;20039;-83
2021/05/14 01:13:05;;;;;;;0.82;0.50;;;11.50;99.90;;;;;;5060951;28;20115;-86
2021/05/14 01:15:32;;;;;;;3.38;0.90;;;11.50;99.90;;;;;;5075419;28;20426;-84
2021/05/14 01:17:57;;;;;;;1.58;0.40;;;11.50;99.90;;;;;;5059211;28;20397;-87
2021/05/14 01:20:30;;;;;;;2.33;0.50;;;11.40;99.90;;;;;;5059002;28;20053;-85
2021/05/14 01:22:56;;;;;;;3.33;0.40;;;11.40;99.90;;;;;;5044110;28;20028;-86
2021/05/14 01:25:22;;;;;;;3.50;0.47;;;11.40;99.90;;;;;;5042507;28;20511;-87
2021/05/14 01:27:48;;;;;;;2.08;0.40;;;11.40;99.90;;;;;;5059759;28;20048;-84
2021/05/14 01:30:14;;;;;;;1.33;0.40;;;11.40;99.90;;;;;;5059813;28;20054;-85
2021/05/14 01:32:40;;;;;;;1.13;0.45;;;11.40;99.90;;;;;;5059949;28;20024;-84
2021/05/14 01:35:07;;;;;;;4.40;0.50;;;11.30;99.90;;;;;;5076944;28;20031;-84
2021/05/14 01:37:32;;;;;;;2.05;0.50;;;11.30;99.90;;;;;;5059812;28;20150;-84
2021/05/14 01:39:58;;;;;;;3.95;0.50;;;11.30;99.90;;;;;;5042800;28;20502;-83
2021/05/14 01:42:24;;;;;;;1.65;0.40;;;11.30;99.90;;;;;;5077102;28;20036;-84
2021/05/14 01:44:50;;;;;;;0.82;0.40;;;11.20;99.90;;;;;;5077168;28;20027;-86
2021/05/14 01:47:18;;;;;;;1.70;0.57;;;11.30;99.90;;;;;;5042761;28;20040;-86
2021/05/14 01:49:49;;;;;;;4.85;0.82;;;11.20;99.90;;;;;;5043051;28;20028;-87
2021/05/14 01:52:15;;;;;;;1.10;0.43;;;11.20;99.90;;;;;;5059488;28;20145;-84
2021/05/14 01:54:40;;;;;;;0.80;0.45;;;11.20;99.90;;;;;;5058381;28;20025;-87
2021/05/14 01:57:06;;;;;;;1.52;0.40;;;11.20;99.90;;;;;;5059091;28;20040;-85
2021/05/14 01:59:33;;;;;;;0.55;0.32;;;11.20;99.90;;;;;;5058925;28;20054;-85
2021/05/14 02:01:59;;;;;;;0.88;0.57;;;11.20;99.90;;;;;;5077433;28;20028;-86
2021/05/14 02:04:25;;;;;;;1.20;0.50;;;11.20;99.90;;;;;;5059500;28;20395;-84
2021/05/14 02:06:51;;;;;;;2.88;0.50;;;11.20;99.90;;;;;;5077077;28;20028;-85
2021/05/14 02:09:17;;;;;;;2.45;0.40;;;11.10;99.90;;;;;;5059337;28;20028;-85
2021/05/14 02:11:44;;;;;;;1.52;0.65;;;11.10;99.90;;;;;;5059258;28;20030;-86
2021/05/14 02:14:10;;;;;;;2.35;0.50;;;11.10;99.90;;;;;;5059324;28;20055;-83
2021/05/14 02:16:37;;;;;;;0.65;0.40;;;11.10;99.90;;;;;;5042955;28;20391;-84
2021/05/14 02:19:03;;;;;;;1.00;0.60;;;11.10;99.90;;;;;;5077000;28;20032;-86
2021/05/14 02:21:28;;;;;;;3.10;1.05;;;11.00;99.90;;;;;;5059035;28;20064;-84
2021/05/14 02:23:57;;;;;;;2.00;1.30;;;11.00;99.90;;;;;;5058720;28;20111;-84
2021/05/14 02:26:23;;;;;;;2.40;0.75;;;11.00;99.90;;;;;;5057455;28;20040;-84
2021/05/14 02:28:48;;;;;;;1.27;0.50;;;11.00;99.90;;;;;;5056095;28;20020;-86
2021/05/14 02:31:14;;;;;;;1.25;0.32;;;11.00;99.90;;;;;;5074033;28;20040;-84
2021/05/14 02:33:39;;;;;;;1.10;0.60;;;11.00;99.90;;;;;;5056483;28;20021;-84
2021/05/14 02:36:05;;;;;;;1.73;0.60;;;11.00;99.90;;;;;;5056393;28;20035;-86
2021/05/14 02:38:31;;;;;;;1.77;0.52;;;11.10;99.90;;;;;;5039730;28;20480;-87
2021/05/14 02:40:57;;;;;;;4.78;0.93;;;11.00;99.90;;;;;;5056220;28;20016;-86
2021/05/14 02:43:22;;;;;;;2.17;1.20;;;11.00;99.90;;;;;;5058009;28;20032;-85
2021/05/14 02:45:49;;;;;;;1.88;0.80;;;11.00;99.90;;;;;;5075800;28;20025;-84
2021/05/14 02:48:17;;;;;;;2.35;0.70;;;11.00;99.90;;;;;;5056241;28;20027;-85
2021/05/14 02:50:43;;;;;;;1.35;0.77;;;11.00;99.90;;;;;;5056128;28;20024;-83
2021/05/14 02:53:08;;;;;;;2.25;0.80;;;11.00;99.90;;;;;;5056381;28;20047;-84
2021/05/14 02:55:34;;;;;;;2.63;0.60;;;11.10;99.90;;;;;;5056125;28;20025;-86
2021/05/14 02:58:00;;;;;;;2.42;0.60;;;11.10;99.90;;;;;;5056096;28;20029;-85
2021/05/14 03:00:25;;;;;;;0.90;0.50;;;11.10;99.90;;;;;;5056340;28;20353;-86
2021/05/14 03:02:51;;;;;;;0.95;0.57;;;11.10;99.90;;;;;;5056348;28;20028;-86
2021/05/14 03:05:17;;;;;;;0.80;0.55;;;11.00;99.90;;;;;;5058478;28;20025;-87
2021/05/14 03:07:43;;;;;;;2.72;0.60;;;11.00;99.90;;;;;;5059965;28;20432;-83
2021/05/14 03:10:09;;;;;;;2.78;1.20;;;11.10;99.90;;;;;;5060405;28;20070;-85
2021/05/14 03:12:36;;;;;;;0.80;0.60;;;11.00;99.90;;;;;;5060125;28;20029;-85
2021/05/14 03:15:10;;;;;;;1.73;0.60;;;11.00;99.90;;;;;;5062355;28;20047;-85
2021/05/14 03:17:36;;;;;;;1.25;0.57;;;11.00;99.90;;;;;;5065800;28;20063;-83
2021/05/14 03:20:04;;;;;;;2.90;0.90;;;10.90;99.90;;;;;;5059749;28;20044;-86
2021/05/14 03:22:29;;;;;;;1.27;0.70;;;10.90;99.90;;;;;;5059475;28;20119;-85
2021/05/14 03:24:55;;;;;;;1.48;0.68;;;10.80;99.90;;;;;;5059391;28;20060;-85
2021/05/14 03:27:20;;;;;;;0.95;0.43;;;10.80;99.90;;;;;;5059373;28;20119;-83
2021/05/14 03:29:46;;;;;;;0.73;0.60;;;10.70;99.90;;;;;;5059239;28;20171;-83
2021/05/14 03:32:12;;;;;;;1.15;0.55;;;10.70;99.90;;;;;;5077375;28;20033;-84
2021/05/14 03:34:38;;;;;;;3.53;1.80;;;10.70;99.90;;;;;;5061323;28;20384;-85
2021/05/14 03:37:03;;;;;;;1.85;0.73;;;10.70;99.90;;;;;;5060207;28;20044;-87
2021/05/14 03:39:29;;;;;;;0.82;0.50;;;10.70;99.90;;;;;;5058558;28;20028;-84
2021/05/14 03:44:31;;;;;;;2.17;0.77;;;10.80;99.90;;;;;;5076681;28;20104;-83
2021/05/14 03:46:57;;;;;;;2.28;0.40;;;10.80;99.90;;;;;;5058810;28;20028;-86
2021/05/14 03:49:23;;;;;;;1.10;0.80;;;10.80;99.90;;;;;;5058667;28;20020;-86
2021/05/14 03:51:49;;;;;;;3.75;1.45;;;10.80;99.90;;;;;;5058956;28;20032;-85
2021/05/14 03:54:14;;;;;;;3.40;2.47;;;10.90;99.90;;;;;;5058668;28;20020;-86
2021/05/14 03:56:40;;;;;;;7.28;6.32;;;10.80;99.90;;;;;;5058477;28;20086;-86
2021/05/14 03:59:05;;;;;;;8.73;6.60;;;10.80;99.90;;;;;;5058091;28;20120;-85
2021/05/14 04:01:31;;;;;;;7.35;6.20;;;10.80;99.90;;;;;;5059034;28;20025;-87
2021/05/14 04:03:58;;;;;;;8.82;6.40;;;10.90;99.90;;;;;;5076348;28;20027;-83
2021/05/14 04:06:25;;;;;;;14.85;12.02;;;10.90;99.90;;;;;;5058612;28;20494;-85
2021/05/14 04:08:52;;;;;;;8.77;6.45;;;11.00;99.90;;;;;;5058363;28;20035;-85
2021/05/14 04:11:40;;;;;;;9.18;4.60;;;11.00;99.90;;;;;;5058607;28;20047;-85
2021/05/14 04:16:48;;;;;;;5.72;2.95;;;11.10;99.90;;;;;;5076442;28;20039;-87
2021/05/14 04:19:14;;;;;;;3.83;2.50;;;11.20;99.90;;;;;;5058483;28;20029;-87
2021/05/14 04:21:40;;;;;;;2.83;2.08;;;11.20;99.90;;;;;;5057990;28;20055;-84
2021/05/14 04:24:07;;;;;;;2.92;1.85;;;11.30;99.90;;;;;;5057980;28;20021;-85
2021/05/14 04:26:32;;;;;;;3.17;1.88;;;11.30;99.90;;;;;;5058078;28;20468;-84
2021/05/14 04:28:58;;;;;;;3.83;1.85;;;11.40;99.90;;;;;;5057864;28;20034;-86
2021/05/14 04:31:24;;;;;;;4.80;2.55;;;11.40;99.90;;;;;;5057922;28;20028;-88
2021/05/14 04:33:49;;;;;;;3.58;1.00;;;11.30;99.90;;;;;;5057917;28;20456;-83
2021/05/14 04:36:15;;;;;;;3.13;1.38;;;11.40;99.90;;;;;;5057466;28;20021;-85
2021/05/14 04:38:41;;;;;;;1.73;0.80;;;11.40;99.90;;;;;;5058093;28;20471;-84
2021/05/14 04:41:06;;;;;;;5.53;1.00;;;11.50;99.90;;;;;;5058176;28;20081;-86
2021/05/14 04:43:32;;;;;;;2.60;0.95;;;11.50;99.90;;;;;;5058056;28;20029;-84
2021/05/14 04:45:59;;;;;;;4.05;0.47;;;11.50;99.90;;;;;;5057917;28;20051;-85
2021/05/14 04:48:25;;;;;;;3.55;0.75;;;11.50;99.90;;;;;;5057749;28;20016;-85
2021/05/14 04:50:51;;;;;;;5.30;3.38;;;11.60;99.90;;;;;;5058011;28;20032;-84
2021/05/14 04:53:18;;;;;;;2.38;0.70;;;11.60;99.90;;;;;;5057805;28;20146;-86
2021/05/14 04:55:44;;;;;;;3.60;2.25;;;11.70;99.90;;;;;;5057457;28;20082;-84
2021/05/14 04:58:10;;;;;;;1.48;0.50;;;11.80;99.90;;;;;;5057269;28;20076;-85
2021/05/14 05:00:36;;;;;;;1.15;0.63;;;11.80;99.90;;;;;;5057770;28;20110;-85
2021/05/14 05:03:01;;;;;;;5.80;0.85;;;11.90;99.90;;;;;;5057436;28;20024;-84
2021/05/14 05:05:29;;;;;;;2.50;0.50;;;11.90;99.90;;;;;;5057464;28;20029;-85
2021/05/14 05:07:55;;;;;;;9.65;7.60;;;12.10;99.90;;;;;;5057324;28;20039;-83
2021/05/14 05:10:21;;;;;;;2.95;1.65;;;12.10;99.90;;;;;;5057311;28;20374;-79
2021/05/14 05:12:47;;;;;;;5.45;4.53;;;13.70;99.90;;;;;;5075109;28;20545;-80
2021/05/14 05:15:14;;;;;;;2.63;1.95;;;14.80;99.90;;;;;;5056237;28;20020;-83
2021/05/14 05:17:40;;;;;;;2.05;1.27;;;14.60;99.70;;;;;;5056207;28;20146;-82
2021/05/14 05:20:07;;;;;;;2.38;0.80;;;15.20;99.90;;;;;;5076411;28;20045;-80
2021/05/14 05:22:33;;;;;;;2.45;0.70;;;15.20;99.80;;;;;;5061774;28;20485;-82
2021/05/14 05:24:58;;;;;;;2.00;1.77;;;15.20;99.10;;;;;;5073569;28;20143;-82
2021/05/14 05:27:24;;;;;;;2.38;2.05;;;15.10;99.30;;;;;;5054595;28;20039;-79
2021/05/14 05:29:50;;;;;;;2.33;0.68;;;15.30;99.90;;;;;;5072282;28;20032;-81
2021/05/14 05:32:16;;;;;;;2.53;0.95;;;15.00;98.30;;;;;;5072442;28;20107;-81
2021/05/14 05:34:42;;;;;;;2.50;2.30;;;14.90;98.60;;;;;;5054422;28;20025;-80
2021/05/14 05:37:07;;;;;;;6.60;3.28;;;14.80;97.90;;;;;;5073268;28;20414;-82
2021/05/14 05:39:33;;;;;;;2.53;1.65;;;14.40;99.80;;;;;;5055431;28;20033;-82
2021/05/14 05:41:59;;;;;;;2.45;1.02;;;14.60;99.10;;;;;;5055360;28;20015;-82
2021/05/14 05:44:24;;;;;;;1.52;1.10;;;14.70;99.80;;;;;;5055143;28;20192;-80
2021/05/14 05:46:50;;;;;;;3.28;0.80;;;15.10;99.90;;;;;;5055827;28;20539;-81
2021/05/14 05:49:17;;;;;;;3.15;1.38;;;15.60;99.20;;;;;;5055449;28;20032;-81
2021/05/14 05:51:42;;;;;;;5.32;2.47;;;15.60;97.60;;;;;;5055912;28;20119;-83
2021/05/14 05:54:08;;;;;;;4.80;1.88;;;15.30;98.00;;;;;;5056236;28;20111;-81
2021/05/14 05:56:34;;;;;;;7.68;1.98;;;15.10;97.70;;;;;;5055685;28;20028;-81
2021/05/14 05:59:00;;;;;;;5.22;1.70;;;15.00;98.20;;;;;;5055813;28;20468;-84
2021/05/14 06:01:26;;;;;;;4.50;1.13;;;15.00;98.60;;;;;;5055778;28;20028;-82
2021/05/14 06:03:51;;;;;;;3.67;1.10;;;15.20;98.40;;;;;;5055649;28;20031;-81
2021/05/14 06:06:17;;;;;;;2.78;0.85;;;15.10;99.70;;;;;;5073625;28;20032;-81
2021/05/14 06:08:43;;;;;;;1.55;0.70;;;15.30;97.80;;;;;;5055157;28;20367;-82
2021/05/14 06:11:08;;;;;;;1.80;0.70;;;15.20;99.10;;;;;;5088557;28;20033;-80
2021/05/14 06:13:35;;;;;;;2.67;0.60;;;15.30;98.30;;;;;;5055046;28;20070;-81
2021/05/14 06:16:02;;;;;;;1.83;0.60;;;15.10;99.40;;;;;;5055130;28;20468;-82
2021/05/14 06:18:34;;;;;;;1.90;0.68;;;15.30;98.60;;;;;;5073465;28;20598;-82
2021/05/14 06:21:00;;;;;;;4.05;0.85;;;15.30;97.70;;;;;;5055486;28;20040;-82
2021/05/14 06:23:26;;;;;;;8.25;1.33;;;15.40;99.00;;;;;;5055373;28;20376;-83
2021/05/14 06:25:52;;;;;;;6.72;1.23;;;15.60;97.10;;;;;;5055866;28;20079;-82
2021/05/14 06:28:21;;;;;;;5.30;1.23;;;15.60;99.40;;;;;;5055656;28;20032;-82
2021/05/14 06:30:47;;;;;;;2.28;0.73;;;15.80;97.30;;;;;;5060466;28;20020;-86
2021/05/14 06:33:13;;;;;;;3.92;0.80;;;15.70;96.60;;;;;;5063427;28;20025;-85
2021/05/14 06:35:40;;;;;;;4.20;0.80;;;15.50;97.20;;;;;;5044705;28;20357;-83
2021/05/14 06:38:06;;;;;;;65.80;32.15;;;15.40;97.40;;;;;;5057736;28;20036;-84
2021/05/14 06:40:32;;;;;;;4.55;1.80;;;15.30;97.80;;;;;;5059839;28;20482;-82
2021/05/14 06:42:58;;;;;;;2.55;0.80;;;15.40;97.70;;;;;;5060035;28;20029;-83
2021/05/14 06:45:24;;;;;;;4.88;1.17;;;15.50;97.60;;;;;;5094392;28;20392;-83
2021/05/14 06:47:50;;;;;;;2.45;0.50;;;15.60;97.50;;;;;;5080707;28;20032;-83
2021/05/14 06:50:15;;;;;;;3.58;0.70;;;15.70;96.30;;;;;;5060751;28;20040;-88
2021/05/14 06:52:41;;;;;;;0.60;0.40;;;15.80;95.60;;;;;;5063220;28;20388;-85
2021/05/14 06:55:09;;;;;;;0.70;0.30;;;15.80;95.20;;;;;;5061171;28;20124;-86
2021/05/14 06:57:36;;;;;;;3.05;0.75;;;15.70;93.90;;;;;;5060971;28;20033;-83
2021/05/14 07:00:03;;;;;;;1.95;0.30;;;15.60;93.90;;;;;;5059205;28;20017;-82
2021/05/14 07:02:29;;;;;;;1.55;0.40;;;16.20;95.20;;;;;;5058297;28;20108;-81
2021/05/14 07:04:55;;;;;;;2.05;0.30;;;16.50;95.90;;;;;;5078192;28;20128;-81
2021/05/14 07:07:21;;;;;;;0.60;0.30;;;16.70;92.80;;;;;;5078694;28;20364;-79
2021/05/14 07:09:46;;;;;;;0.55;0.10;;;16.70;90.90;;;;;;5059989;28;20047;-80
2021/05/14 07:12:13;;;;;;;0.65;0.17;;;16.70;89.60;;;;;;5075292;28;20078;-85
2021/05/14 07:14:38;;;;;;;0.35;0.20;;;16.70;89.00;;;;;;5059338;28;20055;-82
2021/05/14 07:17:04;;;;;;;0.35;0.10;;;16.90;89.60;;;;;;5059848;28;20071;-88
2021/05/14 07:19:30;;;;;;;0.30;0.20;;;17.10;88.10;;;;;;5059861;28;20047;-85
2021/05/14 07:21:56;;;;;;;2.08;0.30;;;17.20;90.70;;;;;;5056175;28;20104;-85
2021/05/14 07:24:21;;;;;;;0.85;0.10;;;17.30;88.30;;;;;;5056041;28;20025;-84
2021/05/14 07:26:47;;;;;;;7.00;5.25;;;17.30;90.90;;;;;;5055817;28;20419;-84
2021/05/14 07:29:13;;;;;;;0.55;0.30;;;17.20;88.90;;;;;;5054766;28;20025;-81
2021/05/14 07:31:39;;;;;;;1.35;0.40;;;17.30;88.20;;;;;;5055588;28;20495;-82
2021/05/14 07:34:05;;;;;;;1.20;0.60;;;17.20;90.10;;;;;;5055382;28;20029;-81
2021/05/14 07:36:31;;;;;;;3.30;2.15;;;17.40;88.40;;;;;;5055642;28;20098;-79
2021/05/14 07:38:56;;;;;;;1.52;0.90;;;17.50;87.50;;;;;;5053383;28;20369;-81
2021/05/14 07:41:22;;;;;;;10.82;6.45;;;17.50;89.10;;;;;;5055414;28;20108;-78
2021/05/14 07:43:48;;;;;;;3.45;1.75;;;17.60;87.70;;;;;;5058440;28;20029;-78
2021/05/14 07:46:14;;;;;;;10.45;7.03;;;17.70;86.00;;;;;;5055812;28;20112;-77
2021/05/14 07:48:39;;;;;;;4.25;2.63;;;17.70;88.80;;;;;;5053066;28;20025;-79
2021/05/14 07:51:05;;;;;;;1.33;0.47;;;18.00;89.20;;;;;;5055066;28;20025;-79
2021/05/14 07:53:31;;;;;;;1.85;1.10;;;18.00;86.40;;;;;;5054112;28;20021;-78
2021/05/14 07:55:57;;;;;;;3.15;0.52;;;18.10;83.80;;;;;;5053330;28;20029;-77
2021/05/14 07:58:23;;;;;;;2.55;0.57;;;18.20;86.10;;;;;;5052515;28;20040;-79
2021/05/14 08:00:50;;;;;;;0.43;0.20;;;18.20;81.40;;;;;;5054721;28;20021;-80
2021/05/14 08:03:16;;;;;;;2.33;0.40;;;18.30;76.20;;;;;;5053405;28;20029;-78
2021/05/14 08:05:47;;;;;;;0.63;0.20;;;18.30;83.40;;;;;;5053903;28;20032;-78
2021/05/14 08:08:15;;;;;;;4.07;0.30;;;18.50;81.90;;;;;;5053172;28;20021;-77
2021/05/14 08:10:41;;;;;;;1.80;0.10;;;18.70;80.30;;;;;;5054376;28;20158;-76
2021/05/14 08:13:07;;;;;;;1.30;0.20;;;18.50;76.00;;;;;;5053107;28;20107;-80
2021/05/14 08:15:33;;;;;;;0.88;0.10;;;18.30;75.90;;;;;;5054500;28;20021;-78
2021/05/14 08:17:58;;;;;;;0.93;0.17;;;18.30;70.00;;;;;;5055087;28;20104;-82
2021/05/14 08:20:25;;;;;;;1.50;0.40;;;18.20;70.70;;;;;;5061131;28;20648;-81
2021/05/14 08:22:52;;;;;;;0.30;0.20;;;18.20;67.70;;;;;;5061213;28;20083;-80
2021/05/14 08:25:18;;;;;;;0.38;0.10;;;18.20;68.10;;;;;;5074555;28;20031;-80
2021/05/14 08:27:45;;;;;;;0.35;0.20;;;18.20;67.10;;;;;;5056330;28;20422;-83
2021/05/14 08:30:14;;;;;;;0.43;0.10;;;18.10;67.00;;;;;;5056009;28;20017;-81
2021/05/14 08:32:41;;;;;;;2.95;0.17;;;18.10;68.80;;;;;;5056123;28;20086;-81
2021/05/14 08:35:08;;;;;;;0.43;0.10;;;17.80;67.90;;;;;;5055241;28;20013;-78
2021/05/14 08:37:34;;;;;;;0.52;0.10;;;17.90;73.80;;;;;;5055336;28;20037;-80
2021/05/14 08:39:59;;;;;;;0.47;0.10;;;18.30;73.00;;;;;;5073842;28;20032;-80
2021/05/14 08:42:25;;;;;;;2.35;0.10;;;18.40;69.50;;;;;;5073599;28;20648;-79
2021/05/14 08:44:51;;;;;;;0.65;0.10;;;18.50;69.50;;;;;;5055574;28;20021;-80
2021/05/14 08:47:17;;;;;;;0.30;0.10;;;18.70;68.90;;;;;;5073232;28;20028;-79
2021/05/14 08:49:46;;;;;;;1.00;0.17;;;18.60;65.30;;;;;;5055603;28;20074;-79
2021/05/14 08:52:12;;;;;;;0.28;0.10;;;18.80;68.40;;;;;;5055097;28;20020;-79
2021/05/14 08:54:44;;;;;;;0.65;0.15;;;18.80;64.70;;;;;;5073856;28;20130;-83
2021/05/14 08:57:11;;;;;;;0.30;0.10;;;18.80;64.80;;;;;;5055574;28;20115;-83
2021/05/14 08:59:37;;;;;;;1.65;0.20;;;18.90;63.60;;;;;;5055834;28;20054;-80
2021/05/14 09:02:03;;;;;;;0.85;0.43;;;18.70;64.20;;;;;;5054555;28;20031;-80
2021/05/14 09:04:34;;;;;;;0.30;0.05;;;18.80;64.40;;;;;;5073113;28;20021;-80
2021/05/14 09:07:00;;;;;;;1.05;0.13;;;18.80;65.00;;;;;;5073134;28;20020;-79
2021/05/14 09:09:26;;;;;;;0.93;0.40;;;18.80;64.80;;;;;;5055395;28;20032;-79
2021/05/14 09:11:52;;;;;;;3.20;0.15;;;19.10;64.50;;;;;;5055407;28;20032;-78
2021/05/14 09:14:46;;;;;;;0.30;0.10;;;19.20;63.20;;;;;;5056021;28;20021;-79
2021/05/14 09:17:14;;;;;;;5.10;0.15;;;19.10;61.60;;;;;;5055419;28;20036;-79
2021/05/14 09:19:42;;;;;;;0.98;0.40;;;19.10;62.70;;;;;;5054803;28;20559;-78
2021/05/14 09:22:10;;;;;;;0.82;0.10;;;19.00;67.00;;;;;;5052642;28;20079;-78
2021/05/14 09:24:36;;;;;;;1.90;1.20;;;19.00;62.60;;;;;;5050868;28;20013;-79
2021/05/14 09:27:26;;;;;;;0.77;0.10;;;19.10;63.50;;;;;;5054140;28;20418;-78
2021/05/14 09:29:51;;;;;;;0.40;0.20;;;19.00;62.50;;;;;;5072217;28;20021;-79
2021/05/14 09:32:25;;;;;;;0.85;0.20;;;19.10;63.60;;;;;;5054061;28;20039;-78
2021/05/14 09:34:55;;;;;;;0.30;0.10;;;19.20;65.10;;;;;;5054346;28;20360;-78
2021/05/14 09:37:25;;;;;;;1.02;0.10;;;19.50;66.40;;;;;;5054398;28;20029;-78
2021/05/14 09:40:12;;;;;;;1.30;0.10;;;19.60;63.00;;;;;;5054220;28;20020;-76
2021/05/14 09:42:38;;;;;;;0.75;0.15;;;19.50;64.70;;;;;;5053887;28;20483;-78
2021/05/14 09:45:12;;;;;;;1.13;0.20;;;19.80;61.70;;;;;;5071981;28;20028;-77
2021/05/14 09:47:38;;;;;;;0.30;0.10;;;19.80;60.70;;;;;;5053983;28;20077;-81
2021/05/14 09:50:26;;;;;;;0.30;0.10;;;19.80;61.00;;;;;;5054069;28;20471;-78
2021/05/14 09:53:06;;;;;;;1.65;0.10;;;19.80;60.40;;;;;;5072211;28;20027;-78
2021/05/14 09:55:34;;;;;;;0.47;0.20;;;19.90;61.50;;;;;;5071720;28;20100;-77
2021/05/14 09:58:07;;;;;;;0.57;0.20;;;20.10;65.10;;;;;;5071945;28;20028;-79
2021/05/14 10:00:33;;;;;;;0.13;0.03;;;20.30;63.90;;;;;;5053606;28;20028;-78
2021/05/14 10:02:59;;;;;;;0.20;0.00;;;20.40;59.80;;;;;;5071990;28;20032;-79
2021/05/14 10:05:25;;;;;;;3.35;0.30;;;20.30;61.20;;;;;;5071643;28;20476;-78
2021/05/14 10:07:52;;;;;;;2.15;0.13;;;20.70;63.30;;;;;;5054465;28;20033;-79
2021/05/14 10:10:19;;;;;;;0.95;0.20;;;20.80;61.20;;;;;;5054461;28;20027;-79
2021/05/14 10:12:48;;;;;;;0.73;0.00;;;20.50;61.30;;;;;;5055329;28;20029;-80
2021/05/14 10:15:14;;;;;;;0.32;0.13;;;20.50;60.70;;;;;;5059131;28;20028;-79
2021/05/14 10:17:45;;;;;;;1.25;0.10;;;20.50;60.70;;;;;;5076666;28;20048;-78
2021/05/14 10:20:18;;;;;;;1.90;0.10;;;20.70;60.70;;;;;;5076840;28;20047;-78
2021/05/14 10:22:46;;;;;;;2.60;0.20;;;21.10;58.80;;;;;;5077032;28;20112;-78
2021/05/14 10:25:20;;;;;;;0.30;0.10;;;21.10;60.00;;;;;;5058997;28;20475;-78
2021/05/14 10:27:46;;;;;;;0.43;0.10;;;21.40;61.40;;;;;;5059288;28;20119;-78
2021/05/14 10:30:13;;;;;;;0.50;0.10;;;21.30;56.00;;;;;;5077090;28;20099;-78
2021/05/14 10:32:44;;;;;;;0.90;0.17;;;21.20;56.00;;;;;;5077008;28;20020;-80
2021/05/14 10:35:26;;;;;;;1.50;0.10;;;20.80;56.40;;;;;;5058793;28;20023;-79
2021/05/14 10:38:02;;;;;;;0.20;0.00;;;20.90;58.60;;;;;;5058749;28;20553;-78
2021/05/14 10:43:02;;;;;;;0.47;0.17;;;20.80;57.80;;;;;;5076387;28;20051;-78
2021/05/14 10:45:38;;;;;;;0.57;0.10;;;21.00;55.80;;;;;;5076655;28;20020;-78
2021/05/14 10:48:16;;;;;;;0.77;0.10;;;20.80;56.30;;;;;;5058401;28;20115;-79
2021/05/14 10:50:44;;;;;;;0.70;0.10;;;21.30;57.20;;;;;;5076318;28;20018;-78
2021/05/14 10:53:54;;;;;;;0.30;0.00;;;21.20;54.60;;;;;;5058523;28;20021;-79
2021/05/14 10:56:25;;;;;;;0.30;0.10;;;20.90;55.90;;;;;;5072368;28;20032;-78
2021/05/14 10:59:03;;;;;;;2.60;0.10;;;21.20;59.20;;;;;;5057874;28;20029;-81
2021/05/14 11:01:32;;;;;;;2.80;0.10;;;21.30;55.70;;;;;;5057845;28;20031;-78
2021/05/14 11:04:03;;;;;;;1.38;0.10;;;21.20;56.80;;;;;;5075869;28;20024;-79
2021/05/14 11:06:46;;;;;;;1.52;0.20;;;21.40;54.80;;;;;;5075419;28;20139;-78
2021/05/14 11:09:13;;;;;;;0.75;0.10;;;21.30;55.50;;;;;;5057416;28;20020;-79
2021/05/14 11:12:01;;;;;;;5.45;0.10;;;21.50;56.00;;;;;;5075589;28;20033;-79
2021/05/14 11:14:43;;;;;;;0.20;0.10;;;21.60;55.30;;;;;;5057912;28;20025;-78
2021/05/14 11:17:11;;;;;;;0.45;0.13;;;21.10;54.90;;;;;;5056538;28;20075;-80
2021/05/14 11:19:57;;;;;;;1.20;0.20;;;21.20;55.20;;;;;;5057475;28;20033;-79
2021/05/14 11:22:22;;;;;;;0.47;0.10;;;21.00;54.50;;;;;;5053540;28;20041;-79
2021/05/14 11:24:52;;;;;;;0.68;0.10;;;20.80;55.10;;;;;;5053511;28;20028;-79
2021/05/14 11:27:38;;;;;;;0.80;0.20;;;20.90;58.00;;;;;;5054986;28;20025;-78
2021/05/14 11:30:06;;;;;;;1.10;0.10;;;21.10;56.70;;;;;;5054448;28;20025;-79
2021/05/14 11:32:33;;;;;;;2.53;0.13;;;21.30;56.40;;;;;;5055109;28;20032;-79
2021/05/14 11:35:03;;;;;;;1.65;0.10;;;21.40;53.90;;;;;;5054633;28;20045;-86
2021/05/14 11:37:41;;;;;;;1.77;0.13;;;21.50;55.10;;;;;;5055553;28;20044;-79
2021/05/14 11:40:08;;;;;;;0.32;0.00;;;21.70;54.80;;;;;;5055632;28;20049;-79
2021/05/14 11:42:43;;;;;;;2.17;0.15;;;21.50;51.80;;;;;;5054972;28;20100;-78
2021/05/14 11:45:14;;;;;;;0.50;0.00;;;21.50;50.40;;;;;;5054734;28;20039;-79
2021/05/14 11:47:45;;;;;;;0.93;0.10;;;21.30;50.10;;;;;;5054015;28;20051;-78
2021/05/14 11:50:18;;;;;;;0.10;0.00;;;21.40;51.10;;;;;;5053537;28;20062;-79
2021/05/14 11:52:44;;;;;;;0.70;0.00;;;21.40;50.30;;;;;;5052667;28;20104;-79
2021/05/14 11:55:12;;;;;;;0.38;0.10;;;21.50;50.40;;;;;;5052920;28;20407;-78
2021/05/14 11:57:39;;;;;;;0.63;0.10;;;21.50;51.00;;;;;;5052873;28;20045;-78
2021/05/14 12:00:07;;;;;;;0.20;0.10;;;21.60;54.30;;;;;;5052820;28;20021;-78
2021/05/14 12:02:34;;;;;;;0.65;0.15;;;22.00;54.50;;;;;;5053029;28;20096;-78
2021/05/14 12:04:59;;;;;;;0.43;0.20;;;22.30;53.20;;;;;;5052954;28;20013;-78
2021/05/14 12:07:25;;;;;;;0.43;0.20;;;22.30;50.80;;;;;;5054200;28;20017;-78
2021/05/14 12:10:06;;;;;;;0.30;0.05;;;22.30;53.30;;;;;;5052581;28;20029;-78
2021/05/14 12:12:32;;;;;;;0.50;0.10;;;22.30;51.50;;;;;;5053091;28;20021;-78
2021/05/14 12:15:15;;;;;;;0.17;0.00;;;22.40;51.70;;;;;;5053095;28;20045;-78
2021/05/14 12:17:42;;;;;;;0.93;0.20;;;22.20;49.20;;;;;;5052095;28;20115;-78
2021/05/14 12:20:12;;;;;;;0.68;0.15;;;21.90;49.40;;;;;;5057726;28;20051;-78
2021/05/14 12:22:47;;;;;;;0.63;0.13;;;21.90;50.60;;;;;;5056731;28;20048;-78
2021/05/14 12:25:13;;;;;;;1.90;0.10;;;21.90;52.80;;;;;;5056423;28;20025;-79
2021/05/14 12:27:40;;;;;;;0.73;0.20;;;21.80;52.40;;;;;;5056467;28;20105;-79
2021/05/14 12:30:09;;;;;;;1.95;0.30;;;21.70;52.60;;;;;;5056736;28;20436;-79
2021/05/14 12:32:35;;;;;;;0.60;0.20;;;21.70;52.10;;;;;;5075243;28;20021;-79
2021/05/14 12:35:02;;;;;;;0.95;0.05;;;21.80;51.50;;;;;;5056916;28;20024;-77
2021/05/14 12:37:27;;;;;;;2.05;0.10;;;21.70;50.20;;;;;;5055531;28;20097;-79
2021/05/14 12:39:53;;;;;;;0.68;0.10;;;21.70;50.10;;;;;;5057208;28;20083;-77
2021/05/14 12:42:30;;;;;;;1.70;0.20;;;21.60;49.70;;;;;;5057007;28;20061;-77
2021/05/14 12:44:59;;;;;;;1.83;0.22;;;21.60;53.20;;;;;;5057028;28;20174;-78
2021/05/14 12:47:27;;;;;;;3.20;0.28;;;21.70;53.50;;;;;;5073599;28;20069;-78
2021/05/14 12:49:58;;;;;;;3.80;0.50;;;21.60;55.00;;;;;;5056618;28;20074;-79
2021/05/14 12:52:27;;;;;;;1.85;0.10;;;21.70;54.50;;;;;;5057198;28;20105;-78
2021/05/14 12:54:59;;;;;;;17.95;4.07;;;21.70;54.60;;;;;;5074032;28;20035;-81
2021/05/14 12:57:33;;;;;;;7.03;1.50;;;21.60;57.10;;;;;;5056462;28;20096;-83